createdAt,value
2022-09-26T00:01:27.472Z,74.52
2022-09-26T00:03:58.169Z,74.35
2022-09-26T00:06:26.187Z,74.26
2022-09-26T00:08:54.308Z,74.20
2022-09-26T00:11:24.637Z,74.56
2022-09-26T00:13:54.183Z,74.54
2022-09-26T00:16:21.970Z,74.86
2022-09-26T00:18:50.818Z,74.91
2022-09-26T00:21:18.565Z,74.86
2022-09-26T00:23:46.538Z,74.82
2022-09-26T00:26:15.499Z,74.70
2022-09-26T00:28:42.822Z,75.07
2022-09-26T00:31:15.114Z,74.88
2022-09-26T00:33:43.353Z,75.56
2022-09-26T00:36:11.033Z,75.21
2022-09-26T00:38:38.148Z,75.24
2022-09-26T00:41:06.817Z,74.95
2022-09-26T00:43:55.663Z,74.86
2022-09-26T00:46:34.869Z,75.37
2022-09-26T00:49:22.918Z,75.17
2022-09-26T00:52:00.057Z,75.13
2022-09-26T00:54:28.763Z,74.84
2022-09-26T00:57:00.135Z,75.17
2022-09-26T00:59:43.759Z,75.16
2022-09-26T01:02:11.961Z,74.89
2022-09-26T01:04:41.639Z,75.75
2022-09-26T01:07:17.364Z,75.72
2022-09-26T01:09:45.149Z,75.73
2022-09-26T01:12:12.953Z,75.42
2022-09-26T01:14:41.872Z,75.48
2022-09-26T01:17:11.116Z,74.95
2022-09-26T01:19:47.440Z,75.51
2022-09-26T01:22:48.817Z,75.58
2022-09-26T01:25:35.140Z,75.30
2022-09-26T01:28:35.827Z,75.20
2022-09-26T01:31:21.607Z,75.32
2022-09-26T01:34:11.579Z,74.71
2022-09-26T01:36:55.546Z,74.86
2022-09-26T01:39:46.742Z,74.93
2022-09-26T01:42:22.654Z,75.34
2022-09-26T01:44:53.720Z,75.51
2022-09-26T01:47:57.013Z,75.24
2022-09-26T01:50:35.106Z,75.34
2022-09-26T01:53:06.535Z,74.78
2022-09-26T01:55:41.199Z,75.25
2022-09-26T01:58:17.331Z,75.21
2022-09-26T02:00:49.115Z,74.83
2022-09-26T02:03:27.498Z,74.41
2022-09-26T02:06:04.269Z,74.34
2022-09-26T02:08:38.139Z,74.63
2022-09-26T02:11:10.959Z,74.57
2022-09-26T02:13:47.591Z,74.01
2022-09-26T02:16:40.701Z,74.39
2022-09-26T02:19:22.222Z,74.44
2022-09-26T02:21:49.432Z,74.17
2022-09-26T02:24:18.218Z,73.25
2022-09-26T02:26:45.382Z,73.55
2022-09-26T02:29:14.279Z,73.71
2022-09-26T02:31:51.725Z,73.49
2022-09-26T02:34:19.434Z,73.34
2022-09-26T02:36:46.587Z,73.41
2022-09-26T02:39:14.060Z,73.47
2022-09-26T02:42:21.859Z,73.98
2022-09-26T02:45:26.644Z,73.78
2022-09-26T02:48:18.238Z,74.05
2022-09-26T02:51:12.924Z,74.21
2022-09-26T02:53:45.969Z,74.17
2022-09-26T02:56:43.261Z,74.20
2022-09-26T02:59:21.787Z,73.84
2022-09-26T03:02:11.978Z,74.40
2022-09-26T03:04:55.197Z,73.97
2022-09-26T03:07:48.361Z,74.15
2022-09-26T03:10:17.032Z,74.30
2022-09-26T03:12:45.439Z,74.10
2022-09-26T03:15:14.490Z,74.35
2022-09-26T03:17:47.622Z,74.10
2022-09-26T03:20:21.706Z,74.04
2022-09-26T03:22:51.543Z,74.00
2022-09-26T03:25:23.033Z,74.12
2022-09-26T03:27:58.754Z,73.82
2022-09-26T03:30:25.867Z,74.21
2022-09-26T03:33:13.941Z,73.93
2022-09-26T03:35:41.066Z,74.17
2022-09-26T03:38:12.386Z,74.72
2022-09-26T03:40:46.744Z,74.17
2022-09-26T03:43:32.489Z,74.35
2022-09-26T03:46:05.517Z,74.71
2022-09-26T03:48:34.321Z,74.35
2022-09-26T03:51:08.012Z,74.21
2022-09-26T03:53:37.533Z,74.31
2022-09-26T03:56:10.413Z,74.13
2022-09-26T03:58:37.895Z,74.05
2022-09-26T04:01:23.628Z,73.99
2022-09-26T04:03:51.474Z,73.78
2022-09-26T04:06:20.427Z,73.43
2022-09-26T04:08:50.276Z,73.68
2022-09-26T04:11:23.139Z,73.20
2022-09-26T04:13:53.349Z,73.44
2022-09-26T04:16:24.385Z,73.59
2022-09-26T04:19:04.993Z,73.77
2022-09-26T04:21:34.508Z,73.53
2022-09-26T04:24:02.799Z,73.54
2022-09-26T04:26:29.850Z,73.62
2022-09-26T04:28:58.121Z,73.53
2022-09-26T04:31:45.293Z,72.88
2022-09-26T04:34:16.581Z,73.15
2022-09-26T04:36:43.784Z,72.74
2022-09-26T04:39:11.678Z,72.29
2022-09-26T04:41:39.539Z,72.33
2022-09-26T04:44:06.720Z,72.29
2022-09-26T04:46:34.043Z,72.43
2022-09-26T04:49:02.056Z,72.51
2022-09-26T04:51:33.101Z,72.46
2022-09-26T04:54:00.594Z,72.03
2022-09-26T04:56:29.959Z,71.69
2022-09-26T04:58:58.623Z,71.53
2022-09-26T05:01:31.124Z,71.79
2022-09-26T05:04:11.045Z,71.36
2022-09-26T05:06:39.341Z,71.60
2022-09-26T05:09:10.029Z,71.86
2022-09-26T05:11:47.833Z,71.67
2022-09-26T05:14:15.191Z,71.82
2022-09-26T05:16:42.463Z,71.93
2022-09-26T05:19:13.470Z,71.54
2022-09-26T05:21:51.734Z,71.49
2022-09-26T05:24:37.630Z,71.59
2022-09-26T05:27:07.537Z,71.13
2022-09-26T05:29:35.120Z,70.71
2022-09-26T05:32:05.043Z,70.59
2022-09-26T05:34:36.877Z,69.79
2022-09-26T05:37:05.374Z,70.19
2022-09-26T05:39:51.547Z,70.18
2022-09-26T05:42:19.744Z,70.40
2022-09-26T05:44:47.270Z,70.68
2022-09-26T05:47:14.373Z,69.90
2022-09-26T05:49:41.589Z,69.61
2022-09-26T05:52:12.284Z,70.32
2022-09-26T05:54:39.253Z,70.02
2022-09-26T05:57:26.225Z,70.12
2022-09-26T05:59:55.260Z,69.88
2022-09-26T06:02:25.548Z,70.01
2022-09-26T06:05:04.132Z,69.63
2022-09-26T06:07:37.164Z,69.92
2022-09-26T06:10:07.510Z,69.55
2022-09-26T06:12:47.581Z,69.86
2022-09-26T06:15:17.511Z,70.21
2022-09-26T06:17:44.904Z,69.56
2022-09-26T06:20:13.224Z,69.20
2022-09-26T06:22:43.966Z,69.82
2022-09-26T06:25:12.502Z,69.51
2022-09-26T06:27:40.303Z,68.98
2022-09-26T06:30:11.776Z,69.61
2022-09-26T06:32:39.304Z,69.16
2022-09-26T06:35:33.324Z,69.26
2022-09-26T06:38:10.003Z,69.03
2022-09-26T06:40:37.427Z,68.96
2022-09-26T06:43:05.565Z,68.44
2022-09-26T06:45:51.173Z,68.37
2022-09-26T06:48:28.944Z,67.97
2022-09-26T06:51:01.616Z,67.75
2022-09-26T06:53:31.517Z,68.17
2022-09-26T06:55:59.946Z,68.15
2022-09-26T06:58:28.084Z,68.57
2022-09-26T07:01:09.655Z,68.17
2022-09-26T07:03:45.628Z,67.98
2022-09-26T07:06:31.806Z,67.33
2022-09-26T07:09:05.533Z,66.91
2022-09-26T07:12:12.901Z,66.63
2022-09-26T07:14:34.250Z,65.89
2022-09-26T07:17:13.944Z,65.71
2022-09-26T07:20:01.258Z,66.05
2022-09-26T07:23:05.994Z,66.01
2022-09-26T07:25:33.712Z,66.03
2022-09-26T07:28:02.354Z,66.38
2022-09-26T07:30:40.403Z,66.16
2022-09-26T07:33:13.837Z,66.20
2022-09-26T07:35:48.344Z,65.94
2022-09-26T07:38:16.085Z,66.12
2022-09-26T07:40:44.046Z,66.17
2022-09-26T07:43:42.805Z,66.28
2022-09-26T07:46:16.800Z,65.56
2022-09-26T07:49:06.207Z,65.55
2022-09-26T07:51:56.062Z,66.03
2022-09-26T07:54:28.320Z,65.41
2022-09-26T07:57:14.474Z,65.35
2022-09-26T07:59:59.838Z,65.47
2022-09-26T08:02:48.851Z,64.42
2022-09-26T08:05:21.233Z,64.25
2022-09-26T08:07:49.651Z,64.75
2022-09-26T08:10:36.531Z,65.72
2022-09-26T08:13:35.822Z,64.13
2022-09-26T08:16:08.521Z,64.15
2022-09-26T08:18:40.705Z,63.78
2022-09-26T08:21:08.238Z,63.24
2022-09-26T08:23:35.734Z,63.40
2022-09-26T08:26:41.870Z,63.65
2022-09-26T08:29:18.728Z,63.74
2022-09-26T08:31:49.177Z,63.39
2022-09-26T08:34:17.672Z,63.84
2022-09-26T08:36:54.328Z,62.70
2022-09-26T08:39:38.151Z,62.80
2022-09-26T08:42:36.465Z,62.54
2022-09-26T08:46:10.243Z,63.34
2022-09-26T08:48:58.683Z,62.57
2022-09-26T08:51:39.876Z,62.23
2022-09-26T08:54:22.037Z,63.24
2022-09-26T08:56:57.985Z,62.84
2022-09-26T08:59:34.658Z,62.72
2022-09-26T09:02:05.233Z,63.28
2022-09-26T09:05:03.238Z,62.60
2022-09-26T09:07:31.720Z,62.10
2022-09-26T09:10:03.851Z,62.19
2022-09-26T09:13:25.917Z,62.95
2022-09-26T09:16:06.075Z,61.59
2022-09-26T09:19:09.530Z,62.74
2022-09-26T09:22:17.922Z,62.74
2022-09-26T09:25:03.564Z,63.50
2022-09-26T09:27:54.219Z,63.57
2022-09-26T09:30:36.121Z,63.78
2022-09-26T09:33:39.704Z,64.42
2022-09-26T09:36:50.892Z,64.08
2022-09-26T09:39:44.858Z,63.79
2022-09-26T09:42:37.110Z,63.93
2022-09-26T09:45:17.456Z,63.54
2022-09-26T09:47:44.913Z,64.05
2022-09-26T09:50:22.098Z,63.76
2022-09-26T09:52:51.886Z,63.74
2022-09-26T09:55:33.002Z,64.41
2022-09-26T09:58:18.542Z,63.31
2022-09-26T10:00:56.572Z,63.22
2022-09-26T10:03:47.926Z,63.38
2022-09-26T10:06:46.579Z,63.60
2022-09-26T10:09:35.898Z,62.14
2022-09-26T10:12:29.374Z,62.42
2022-09-26T10:15:20.437Z,62.79
2022-09-26T10:18:25.778Z,62.08
2022-09-26T10:21:16.393Z,62.56
2022-09-26T10:23:47.285Z,62.77
2022-09-26T10:26:39.732Z,63.08
2022-09-26T10:29:33.954Z,62.35
2022-09-26T10:32:02.408Z,63.13
2022-09-26T10:34:32.909Z,63.57
2022-09-26T10:37:24.333Z,63.89
2022-09-26T10:40:17.607Z,63.35
2022-09-26T10:42:47.298Z,62.84
2022-09-26T10:45:18.193Z,63.09
2022-09-26T10:48:06.262Z,62.97
2022-09-26T10:51:18.793Z,63.20
2022-09-26T10:54:06.007Z,63.98
2022-09-26T10:56:39.289Z,63.79
2022-09-26T10:59:10.129Z,63.44
2022-09-26T11:01:43.367Z,63.77
2022-09-26T11:04:15.532Z,63.77
2022-09-26T11:07:05.738Z,63.94
2022-09-26T11:09:47.075Z,63.93
2022-09-26T11:12:57.814Z,63.26
2022-09-26T11:15:25.372Z,63.78
2022-09-26T11:17:53.792Z,64.06
2022-09-26T11:20:37.146Z,63.86
2022-09-26T11:23:13.077Z,63.33
2022-09-26T11:26:43.248Z,63.67
2022-09-26T11:29:22.066Z,64.12
2022-09-26T11:32:24.021Z,63.28
2022-09-26T11:34:54.591Z,63.61
2022-09-26T11:37:39.394Z,64.42
2022-09-26T11:40:28.150Z,63.41
2022-09-26T11:43:08.789Z,61.94
2022-09-26T11:45:55.933Z,62.15
2022-09-26T11:48:44.252Z,62.83
2022-09-26T11:51:59.153Z,61.98
2022-09-26T11:55:01.106Z,61.54
2022-09-26T11:58:03.572Z,61.29
2022-09-26T12:00:55.984Z,61.04
2022-09-26T12:04:00.714Z,61.31
2022-09-26T12:06:56.177Z,62.32
2022-09-26T12:09:39.335Z,62.25
2022-09-26T12:12:15.353Z,61.82
2022-09-26T12:14:52.840Z,61.73
2022-09-26T12:17:41.072Z,61.16
2022-09-26T12:20:17.011Z,61.50
2022-09-26T12:22:49.886Z,62.12
2022-09-26T12:25:41.699Z,61.70
2022-09-26T12:28:33.684Z,62.25
2022-09-26T12:31:19.663Z,62.18
2022-09-26T12:34:18.897Z,62.58
2022-09-26T12:37:09.430Z,62.18
2022-09-26T12:40:06.812Z,61.78
2022-09-26T12:42:42.589Z,62.15
2022-09-26T12:45:28.428Z,62.35
2022-09-26T12:47:55.674Z,62.25
2022-09-26T12:50:41.321Z,62.79
2022-09-26T12:53:14.146Z,62.11
2022-09-26T12:56:24.073Z,62.70
2022-09-26T12:59:12.887Z,62.47
2022-09-26T13:01:50.297Z,62.36
2022-09-26T13:04:26.431Z,62.18
2022-09-26T13:07:18.885Z,62.59
2022-09-26T13:10:29.019Z,62.51
2022-09-26T13:13:30.275Z,62.66
2022-09-26T13:16:28.225Z,62.34
2022-09-26T13:19:00.505Z,62.57
2022-09-26T13:21:45.094Z,63.62
2022-09-26T13:24:19.749Z,62.37
2022-09-26T13:27:27.042Z,61.83
2022-09-26T13:30:23.560Z,62.49
2022-09-26T13:32:57.495Z,62.63
2022-09-26T13:35:27.929Z,62.80
2022-09-26T13:38:20.252Z,62.69
2022-09-26T13:40:58.949Z,62.81
2022-09-26T13:43:31.072Z,63.01
2022-09-26T13:46:06.642Z,63.03
2022-09-26T13:48:50.212Z,64.06
2022-09-26T13:51:30.816Z,63.47
2022-09-26T13:54:17.014Z,63.83
2022-09-26T13:56:49.787Z,64.09
2022-09-26T13:59:18.280Z,63.98
2022-09-26T14:02:16.544Z,64.18
2022-09-26T14:04:45.603Z,64.89
2022-09-26T14:07:31.038Z,64.54
2022-09-26T14:10:01.872Z,64.82
2022-09-26T14:13:08.462Z,65.73
2022-09-26T14:15:48.411Z,66.46
2022-09-26T14:18:27.299Z,66.31
2022-09-26T14:21:19.515Z,66.66
2022-09-26T14:23:49.538Z,67.22
2022-09-26T14:26:28.189Z,68.34
2022-09-26T14:28:57.370Z,67.75
2022-09-26T14:31:24.265Z,68.61
2022-09-26T14:34:17.473Z,68.95
2022-09-26T14:36:46.633Z,68.66
2022-09-26T14:39:38.737Z,69.48
2022-09-26T14:42:17.114Z,69.48
2022-09-26T14:45:06.115Z,69.95
2022-09-26T14:47:50.519Z,70.84
2022-09-26T14:50:20.798Z,70.20
2022-09-26T14:52:58.063Z,70.66
2022-09-26T14:55:27.137Z,70.21
2022-09-26T14:58:37.377Z,71.58
2022-09-26T15:01:46.089Z,71.51
2022-09-26T15:04:24.074Z,70.82
2022-09-26T15:07:01.746Z,70.88
2022-09-26T15:09:43.691Z,72.74
2022-09-26T15:12:23.095Z,71.98
2022-09-26T15:15:09.819Z,73.03
2022-09-26T15:17:40.990Z,72.03
2022-09-26T15:20:13.502Z,71.95
2022-09-26T15:22:42.686Z,71.98
2022-09-26T15:25:19.692Z,71.87
2022-09-26T15:27:48.985Z,71.55
2022-09-26T15:30:24.646Z,71.53
2022-09-26T15:32:57.535Z,71.96
2022-09-26T15:35:26.986Z,72.25
2022-09-26T15:38:00.206Z,71.88
2022-09-26T15:40:30.343Z,71.27
2022-09-26T15:43:09.978Z,71.51
2022-09-26T15:45:50.224Z,72.41
2022-09-26T15:48:20.121Z,72.22
2022-09-26T15:50:53.672Z,72.33
2022-09-26T15:53:31.967Z,72.15
2022-09-26T15:56:10.241Z,72.34
2022-09-26T15:59:01.092Z,72.09
2022-09-26T16:01:30.794Z,71.90
2022-09-26T16:04:13.498Z,72.91
2022-09-26T16:06:52.788Z,72.52
2022-09-26T16:09:43.673Z,72.94
2022-09-26T16:12:22.437Z,72.81
2022-09-26T16:14:52.537Z,72.38
2022-09-26T16:17:28.099Z,72.29
2022-09-26T16:20:02.861Z,72.55
2022-09-26T16:22:36.950Z,72.47
2022-09-26T16:25:19.597Z,72.37
2022-09-26T16:27:59.809Z,72.29
2022-09-26T16:30:33.747Z,72.77
2022-09-26T16:33:03.890Z,72.57
2022-09-26T16:35:33.624Z,72.54
2022-09-26T16:38:23.194Z,72.29
2022-09-26T16:40:52.540Z,72.41
2022-09-26T16:43:30.035Z,72.44
2022-09-26T16:46:09.310Z,72.57
2022-09-26T16:48:41.322Z,71.76
2022-09-26T16:51:17.541Z,72.16
2022-09-26T16:54:00.658Z,72.44
2022-09-26T16:56:28.654Z,72.10
2022-09-26T16:58:59.435Z,73.04
2022-09-26T17:01:46.452Z,72.86
2022-09-26T17:04:21.593Z,72.84
2022-09-26T17:06:48.849Z,73.10
2022-09-26T17:09:18.564Z,72.71
2022-09-26T17:11:48.438Z,72.97
2022-09-26T17:14:22.156Z,73.33
2022-09-26T17:16:55.461Z,73.41
2022-09-26T17:19:24.481Z,73.41
2022-09-26T17:21:53.080Z,73.42
2022-09-26T17:24:26.320Z,72.81
2022-09-26T17:27:05.846Z,73.06
2022-09-26T17:29:36.603Z,72.66
2022-09-26T17:32:09.634Z,72.89
2022-09-26T17:34:37.754Z,73.39
2022-09-26T17:37:05.351Z,73.34
2022-09-26T17:39:32.539Z,73.59
2022-09-26T17:42:00.233Z,73.01
2022-09-26T17:44:29.767Z,73.29
2022-09-26T17:46:57.791Z,72.94
2022-09-26T17:49:35.311Z,73.38
2022-09-26T17:52:05.297Z,72.78
2022-09-26T17:54:40.778Z,72.64
2022-09-26T17:57:14.630Z,72.65
2022-09-26T17:59:42.955Z,72.52
2022-09-26T18:02:29.317Z,72.51
2022-09-26T18:04:59.377Z,72.10
2022-09-26T18:07:36.216Z,72.74
2022-09-26T18:10:08.339Z,72.48
2022-09-26T18:12:35.627Z,72.96
2022-09-26T18:15:04.771Z,72.49
2022-09-26T18:17:32.395Z,72.55
2022-09-26T18:19:59.691Z,72.20
2022-09-26T18:22:33.189Z,72.58
2022-09-26T18:25:08.598Z,72.75
2022-09-26T18:27:41.880Z,73.30
2022-09-26T18:30:14.079Z,73.03
2022-09-26T18:32:44.291Z,73.28
2022-09-26T18:35:17.103Z,73.14
2022-09-26T18:37:44.809Z,73.46
2022-09-26T18:40:17.086Z,74.02
2022-09-26T18:42:45.787Z,73.83
2022-09-26T18:45:33.298Z,74.34
2022-09-26T18:48:02.452Z,73.67
2022-09-26T18:50:37.190Z,74.02
2022-09-26T18:53:15.763Z,73.65
2022-09-26T18:56:01.644Z,73.67
2022-09-26T18:58:29.769Z,73.40
2022-09-26T19:01:01.759Z,73.47
2022-09-26T19:03:35.038Z,73.88
2022-09-26T19:06:41.040Z,73.72
2022-09-26T19:09:15.070Z,73.47
2022-09-26T19:11:42.679Z,73.63
2022-09-26T19:14:24.709Z,73.57
2022-09-26T19:16:52.885Z,73.01
2022-09-26T19:19:20.773Z,72.91
2022-09-26T19:21:47.816Z,72.78
2022-09-26T19:24:21.305Z,72.54
2022-09-26T19:27:04.731Z,73.23
2022-09-26T19:29:45.984Z,73.07
2022-09-26T19:32:21.176Z,73.43
2022-09-26T19:35:01.149Z,73.40
2022-09-26T19:37:28.396Z,73.21
2022-09-26T19:39:57.881Z,73.70
2022-09-26T19:42:26.428Z,73.49
2022-09-26T19:44:53.518Z,73.30
2022-09-26T19:47:23.736Z,73.80
2022-09-26T19:49:53.001Z,73.67
2022-09-26T19:52:20.920Z,73.94
2022-09-26T19:54:48.864Z,73.37
2022-09-26T19:57:21.112Z,73.81
2022-09-26T19:59:49.839Z,73.78
2022-09-26T20:02:22.834Z,73.81
2022-09-26T20:04:51.248Z,73.92
2022-09-26T20:07:19.705Z,74.01
2022-09-26T20:09:47.322Z,74.27
2022-09-26T20:12:14.948Z,74.79
2022-09-26T20:14:41.965Z,74.71
2022-09-26T20:17:21.194Z,74.37
2022-09-26T20:19:48.781Z,74.59
2022-09-26T20:22:19.506Z,74.57
2022-09-26T20:24:49.433Z,74.60
2022-09-26T20:27:26.599Z,74.47
2022-09-26T20:30:12.682Z,74.40
2022-09-26T20:32:42.638Z,74.26
2022-09-26T20:35:16.021Z,74.31
2022-09-26T20:37:44.037Z,74.11
2022-09-26T20:40:21.344Z,74.21
2022-09-26T20:42:51.798Z,73.91
2022-09-26T20:45:25.580Z,73.53
2022-09-26T20:47:52.623Z,73.88
2022-09-26T20:50:20.883Z,73.96
2022-09-26T20:52:48.280Z,73.92
2022-09-26T20:55:18.260Z,73.92
2022-09-26T20:57:46.162Z,74.04
2022-09-26T21:00:19.486Z,74.40
2022-09-26T21:02:51.476Z,74.21
2022-09-26T21:05:22.934Z,74.15
2022-09-26T21:07:50.916Z,74.23
2022-09-26T21:10:29.025Z,74.35
2022-09-26T21:12:57.027Z,74.29
2022-09-26T21:15:25.998Z,74.27
2022-09-26T21:17:54.345Z,73.91
2022-09-26T21:20:26.273Z,74.36
2022-09-26T21:23:20.551Z,74.54
2022-09-26T21:25:47.653Z,74.89
2022-09-26T21:28:26.761Z,75.06
2022-09-26T21:31:06.321Z,75.11
2022-09-26T21:33:33.641Z,74.34
2022-09-26T21:36:01.024Z,74.63
2022-09-26T21:38:28.208Z,74.37
2022-09-26T21:40:59.795Z,74.23
2022-09-26T21:43:35.519Z,74.06
2022-09-26T21:46:02.962Z,74.00
2022-09-26T21:48:30.150Z,73.92
2022-09-26T21:50:58.620Z,73.27
2022-09-26T21:53:57.760Z,73.85
2022-09-26T21:56:29.972Z,73.59
2022-09-26T21:58:57.709Z,73.14
2022-09-26T22:01:25.173Z,73.30
2022-09-26T22:03:53.547Z,73.65
2022-09-26T22:06:20.693Z,73.08
2022-09-26T22:08:47.788Z,73.13
2022-09-26T22:11:15.022Z,73.61
2022-09-26T22:13:42.168Z,73.63
2022-09-26T22:16:13.311Z,73.80
2022-09-26T22:18:41.581Z,73.40
2022-09-26T22:21:10.359Z,73.98
2022-09-26T22:23:38.285Z,74.07
2022-09-26T22:26:06.213Z,73.83
2022-09-26T22:28:33.580Z,74.21
2022-09-26T22:31:05.290Z,74.16
2022-09-26T22:33:33.382Z,73.79
2022-09-26T22:36:01.154Z,73.83
2022-09-26T22:38:28.331Z,73.95
2022-09-26T22:41:04.172Z,74.40
2022-09-26T22:43:32.835Z,74.45
2022-09-26T22:46:11.253Z,74.68
2022-09-26T22:48:41.442Z,74.84
2022-09-26T22:51:10.482Z,74.88
2022-09-26T22:53:39.320Z,74.75
2022-09-26T22:56:09.194Z,75.09
2022-09-26T22:58:44.414Z,74.73
2022-09-26T23:01:14.334Z,74.98
2022-09-26T23:03:41.862Z,74.67
2022-09-26T23:06:09.427Z,75.05
2022-09-26T23:08:37.160Z,74.96
2022-09-26T23:11:05.698Z,75.25
2022-09-26T23:13:35.659Z,74.86
2022-09-26T23:16:05.604Z,74.64
2022-09-26T23:18:34.812Z,74.98
2022-09-26T23:21:18.056Z,74.66
2022-09-26T23:23:47.289Z,74.67
2022-09-26T23:26:24.408Z,74.36
2022-09-26T23:28:52.913Z,74.57
2022-09-26T23:31:21.174Z,74.38
2022-09-26T23:33:48.415Z,75.00
2022-09-26T23:36:15.905Z,74.86
2022-09-26T23:38:43.210Z,74.53
2022-09-26T23:41:11.937Z,74.63
2022-09-26T23:43:39.614Z,74.87
2022-09-26T23:46:07.587Z,74.38
2022-09-26T23:48:35.414Z,74.61
2022-09-26T23:51:02.804Z,74.61
2022-09-26T23:53:30.379Z,74.34
2022-09-26T23:56:06.168Z,74.90
2022-09-26T23:58:33.494Z,75.32
